Címlap Időjárás Ferihegy, Budapest Airport időjárás előrejelzés – METAR, TAF BUD/LHBP

Időjárás Ferihegy, Budapest Airport időjárás előrejelzés – METAR, TAF BUD/LHBP

Aktuális szöveges időjárásjelentés / METAR BUD/LHBP, és 24 órás szöveges időjárás-előrejelzés / TAF BUD/LHBP Budapest Liszt Ferenc Nemzetközi Repülőtér

Available data for LHBP from the past 6 hours
Metar
LHBP 220230Z VRB03KT CAVOK 18/18 Q1010 NOSIG

02:30 UTC

Wind: ° 3kt

Visibility:

Sky:

Temp: 18 deg C / 64.4 deg F

Dewpoint: 18 deg C / 64.4 deg F

Pressure: 1010 hPa

TAF
TAF LHBP 212315Z 2200/2224 VRB03KT CAVOK TEMPO 2200/2209 VRB10G20KT 4000 TSRA SCT040CB BKN060 TEMPO 2209/2215 VRB15G30KT 4000 TSRA SCT040CB BKN055 PROB30 TEMPO 2215/2224 VRB10G25KT -TSRA FEW040CB SCT060

Szélirány és erősség Ferihegy és környéke

Európa műholdkép


6 napos időjárás előrejelzés – Budapest Ferihegy Airport


Data is taken from the National Weather Service at NOAA. Satelite image by AustroControl & Meteo-Mc. Only for spotters, do not use for real flight!

A METAR és a TAF adatok a National Weather Service adatbázisából származnak. Az oldalon közölt adatok tájékoztató jellegűek, az oldal üzemeltetője nem vállal felelősséget ezek esetleges pontatlanságáért. Ne használd valós repüléshez!

Légitársaságok, légi utazás hírei